createdAt,value
2017-10-26T00:00:42.061Z,88.85
2017-10-26T00:03:13.278Z,88.87
2017-10-26T00:05:49.018Z,88.55
2017-10-26T00:08:20.733Z,88.50
2017-10-26T00:10:54.200Z,88.35
2017-10-26T00:13:28.416Z,88.45
2017-10-26T00:16:01.190Z,88.39
2017-10-26T00:18:37.960Z,88.44
2017-10-26T00:21:13.602Z,88.11
2017-10-26T00:23:50.487Z,88.57
2017-10-26T00:26:51.062Z,88.96
2017-10-26T00:29:24.393Z,89.64
2017-10-26T00:31:58.852Z,89.17
2017-10-26T00:34:34.942Z,88.95
2017-10-26T00:37:11.454Z,88.85
2017-10-26T00:39:43.260Z,88.94
2017-10-26T00:42:17.156Z,89.42
2017-10-26T00:44:49.786Z,89.68
2017-10-26T00:47:20.933Z,89.85
2017-10-26T00:49:52.788Z,89.64
2017-10-26T00:52:24.136Z,89.51
2017-10-26T00:55:00.808Z,89.38
2017-10-26T00:57:36.497Z,89.26
2017-10-26T01:00:16.997Z,89.14
2017-10-26T01:02:50.512Z,89.50
2017-10-26T01:05:25.724Z,90.11
2017-10-26T01:07:57.576Z,89.95
2017-10-26T01:10:32.352Z,89.93
2017-10-26T01:13:08.767Z,89.92
2017-10-26T01:15:41.612Z,89.73
2017-10-26T01:18:14.930Z,90.04
2017-10-26T01:20:49.380Z,89.88
2017-10-26T01:23:21.126Z,90.45
2017-10-26T01:29:06.193Z,90.17
2017-10-26T01:31:40.378Z,90.17
2017-10-26T01:34:19.128Z,89.93
2017-10-26T01:36:51.048Z,90.83
2017-10-26T01:39:27.674Z,91.68
2017-10-26T01:41:59.133Z,90.62
2017-10-26T01:44:30.881Z,90.49
2017-10-26T01:47:03.712Z,90.67
2017-10-26T01:49:35.696Z,90.26
2017-10-26T01:52:11.894Z,90.29
2017-10-26T01:54:46.066Z,91.59
2017-10-26T01:57:21.537Z,90.54
2017-10-26T01:59:59.986Z,89.86
2017-10-26T02:02:32.025Z,90.51
2017-10-26T02:05:08.634Z,89.95
2017-10-26T02:07:40.216Z,89.43
2017-10-26T02:10:14.477Z,89.85
2017-10-26T02:12:47.733Z,89.73
2017-10-26T02:15:20.620Z,90.08
2017-10-26T02:17:55.551Z,90.30
2017-10-26T02:20:26.870Z,90.67
2017-10-26T02:22:58.117Z,90.85
2017-10-26T02:25:29.107Z,90.75
2017-10-26T02:28:00.987Z,90.53
2017-10-26T02:32:39.926Z,90.27
2017-10-26T02:35:13.857Z,93.76
2017-10-26T02:37:45.923Z,92.08
2017-10-26T02:40:20.290Z,92.74
2017-10-26T02:43:02.584Z,91.92
2017-10-26T02:45:39.032Z,92.51
2017-10-26T02:48:11.185Z,92.24
2017-10-26T02:50:45.308Z,90.73
2017-10-26T02:53:16.990Z,90.65
2017-10-26T02:55:49.380Z,90.74
2017-10-26T02:58:20.605Z,91.64
2017-10-26T03:00:54.774Z,92.25
2017-10-26T03:03:32.435Z,92.26
2017-10-26T03:06:04.911Z,92.03
2017-10-26T03:08:36.235Z,91.85
2017-10-26T03:11:09.232Z,91.47
2017-10-26T03:13:41.957Z,91.23
2017-10-26T03:16:12.623Z,91.33
2017-10-26T03:18:44.356Z,91.98
2017-10-26T03:21:15.454Z,91.42
2017-10-26T03:23:49.850Z,91.24
2017-10-26T03:26:22.026Z,91.15
2017-10-26T03:28:54.028Z,90.95
2017-10-26T03:31:28.673Z,91.17
2017-10-26T03:34:03.238Z,91.24
2017-10-26T03:36:33.797Z,91.99
2017-10-26T03:39:05.347Z,92.46
2017-10-26T03:41:36.106Z,91.01
2017-10-26T03:44:07.406Z,93.22
2017-10-26T03:46:42.347Z,93.96
2017-10-26T03:49:15.665Z,91.87
2017-10-26T03:51:49.559Z,93.54
2017-10-26T03:54:22.189Z,91.81
2017-10-26T03:56:53.730Z,91.38
2017-10-26T03:59:26.137Z,93.94
2017-10-26T04:01:57.359Z,91.22
2017-10-26T04:04:28.566Z,94.55
2017-10-26T04:06:59.963Z,92.51
2017-10-26T04:09:31.458Z,91.48
2017-10-26T04:12:02.592Z,92.64
2017-10-26T04:14:36.388Z,91.46
2017-10-26T04:17:11.709Z,95.49
2017-10-26T04:19:44.180Z,92.37
2017-10-26T04:22:14.990Z,91.69
2017-10-26T04:24:46.525Z,91.98
2017-10-26T04:27:18.567Z,91.84
2017-10-26T04:29:52.762Z,92.14
2017-10-26T04:32:24.200Z,92.03
2017-10-26T04:34:56.093Z,91.88
2017-10-26T04:37:27.602Z,91.88
2017-10-26T04:40:01.850Z,91.48
2017-10-26T04:42:33.831Z,91.63
2017-10-26T04:45:05.433Z,91.49
2017-10-26T04:47:42.604Z,91.42
2017-10-26T04:50:19.968Z,91.32
2017-10-26T04:52:57.133Z,91.56
2017-10-26T04:55:30.662Z,90.97
2017-10-26T04:58:05.922Z,90.97
2017-10-26T05:00:38.413Z,91.45
2017-10-26T05:03:12.412Z,91.36
2017-10-26T05:05:46.843Z,91.36
2017-10-26T05:08:18.423Z,91.55
2017-10-26T05:10:54.501Z,91.46
2017-10-26T05:13:31.504Z,91.21
2017-10-26T05:16:05.418Z,91.38
2017-10-26T05:18:40.077Z,91.11
2017-10-26T05:21:12.826Z,91.16
2017-10-26T05:23:46.313Z,91.38
2017-10-26T05:26:23.944Z,91.04
2017-10-26T05:28:56.486Z,90.86
2017-10-26T05:31:27.335Z,91.24
2017-10-26T05:34:03.568Z,90.77
2017-10-26T05:36:36.339Z,91.21
2017-10-26T05:39:12.855Z,91.54
2017-10-26T05:41:48.078Z,91.40
2017-10-26T05:44:19.904Z,91.46
2017-10-26T05:46:53.662Z,91.60
2017-10-26T05:49:28.257Z,91.71
2017-10-26T05:52:09.017Z,91.17
2017-10-26T05:54:46.196Z,91.47
2017-10-26T05:57:23.716Z,91.89
2017-10-26T05:59:55.676Z,91.85
2017-10-26T06:02:31.534Z,91.86
2017-10-26T06:05:11.698Z,91.89
2017-10-26T06:07:46.816Z,91.70
2017-10-26T06:10:18.691Z,92.01
2017-10-26T06:12:55.351Z,91.93
2017-10-26T06:15:27.480Z,92.29
2017-10-26T06:17:58.814Z,92.23
2017-10-26T06:20:36.368Z,92.32
2017-10-26T06:23:12.495Z,92.15
2017-10-26T06:25:45.055Z,92.12
2017-10-26T06:28:17.349Z,92.20
2017-10-26T06:30:56.176Z,92.03
2017-10-26T06:33:26.766Z,91.98
2017-10-26T06:35:58.658Z,92.57
2017-10-26T06:38:29.938Z,91.96
2017-10-26T06:41:00.946Z,92.19
2017-10-26T06:43:31.914Z,92.20
2017-10-26T06:46:02.950Z,91.84
2017-10-26T06:48:33.837Z,92.27
2017-10-26T06:51:05.367Z,91.96
2017-10-26T06:53:36.065Z,91.79
2017-10-26T06:56:08.897Z,92.20
2017-10-26T06:58:40.021Z,91.92
2017-10-26T07:01:10.778Z,91.87
2017-10-26T07:03:42.196Z,91.79
2017-10-26T07:06:13.318Z,92.24
2017-10-26T07:08:43.851Z,92.50
2017-10-26T07:11:15.032Z,92.14
2017-10-26T07:13:46.309Z,92.53
2017-10-26T07:16:16.996Z,92.20
2017-10-26T07:18:47.761Z,92.13
2017-10-26T07:21:19.013Z,92.02
2017-10-26T07:23:49.945Z,91.88
2017-10-26T07:26:22.486Z,91.63
2017-10-26T07:28:55.185Z,91.58
2017-10-26T07:31:28.363Z,91.28
2017-10-26T07:34:00.988Z,90.86
2017-10-26T07:36:32.873Z,91.86
2017-10-26T07:39:04.976Z,90.95
2017-10-26T07:41:36.616Z,91.59
2017-10-26T07:44:07.454Z,90.50
2017-10-26T07:46:38.529Z,90.81
2017-10-26T07:49:10.320Z,91.26
2017-10-26T07:51:41.433Z,89.20
2017-10-26T07:54:12.184Z,88.56
2017-10-26T07:56:45.065Z,88.78
2017-10-26T07:59:17.603Z,89.06
2017-10-26T08:01:50.594Z,88.94
2017-10-26T08:04:21.226Z,88.64
2017-10-26T08:06:52.005Z,87.82
2017-10-26T08:09:23.457Z,87.81
2017-10-26T08:11:54.294Z,86.88
2017-10-26T08:14:26.945Z,86.97
2017-10-26T08:16:57.748Z,86.26
2017-10-26T08:19:30.080Z,86.32
2017-10-26T08:22:01.244Z,86.16
2017-10-26T08:24:32.652Z,85.69
2017-10-26T08:27:05.570Z,85.67
2017-10-26T08:29:38.269Z,85.23
2017-10-26T08:32:11.399Z,85.44
2017-10-26T08:34:42.169Z,84.99
2017-10-26T08:37:13.147Z,84.63
2017-10-26T08:39:44.566Z,84.52
2017-10-26T08:42:15.617Z,84.31
2017-10-26T08:44:47.604Z,84.06
2017-10-26T08:47:19.476Z,84.42
2017-10-26T08:49:50.428Z,84.57
2017-10-26T08:52:22.100Z,84.19
2017-10-26T08:54:53.218Z,84.01
2017-10-26T08:57:24.093Z,83.79
2017-10-26T08:59:56.700Z,83.60
2017-10-26T09:02:27.924Z,83.55
2017-10-26T09:04:58.626Z,83.36
2017-10-26T09:07:30.528Z,82.94
2017-10-26T09:10:01.988Z,83.25
2017-10-26T09:12:33.325Z,83.53
2017-10-26T09:15:04.079Z,82.39
2017-10-26T09:17:34.836Z,83.73
2017-10-26T09:20:08.302Z,83.40
2017-10-26T09:22:39.269Z,84.08
2017-10-26T09:25:10.753Z,82.04
2017-10-26T09:27:42.092Z,79.35
2017-10-26T09:30:13.904Z,77.86
2017-10-26T09:32:45.811Z,79.01
2017-10-26T09:35:16.650Z,79.42
2017-10-26T09:37:47.618Z,79.70
2017-10-26T09:40:18.864Z,79.95
2017-10-26T09:42:50.211Z,81.11
2017-10-26T09:45:23.310Z,81.28
2017-10-26T09:47:55.599Z,81.11
2017-10-26T09:50:27.345Z,81.50
2017-10-26T09:52:58.989Z,81.61
2017-10-26T09:55:29.712Z,81.00
2017-10-26T09:58:01.088Z,81.56
2017-10-26T10:00:33.185Z,81.21
2017-10-26T10:03:04.219Z,80.46
2017-10-26T10:05:36.240Z,81.14
2017-10-26T10:08:09.368Z,79.64
2017-10-26T10:10:41.654Z,80.13
2017-10-26T10:13:14.212Z,79.93
2017-10-26T10:15:47.333Z,80.07
2017-10-26T10:18:19.297Z,78.91
2017-10-26T10:20:51.539Z,79.29
2017-10-26T10:23:24.995Z,79.03
2017-10-26T10:25:57.702Z,79.40
2017-10-26T10:28:29.717Z,78.79
2017-10-26T10:31:01.390Z,78.62
2017-10-26T10:33:33.372Z,77.79
2017-10-26T10:36:07.364Z,77.39
2017-10-26T10:38:39.534Z,76.63
2017-10-26T10:41:10.355Z,76.91
2017-10-26T10:43:41.463Z,76.99
2017-10-26T10:46:12.221Z,76.01
2017-10-26T10:48:43.018Z,76.45
2017-10-26T10:51:14.266Z,76.17
2017-10-26T10:53:45.011Z,75.94
2017-10-26T10:56:17.072Z,76.65
2017-10-26T10:58:47.892Z,76.10
2017-10-26T11:01:18.990Z,76.44
2017-10-26T11:03:50.181Z,76.57
2017-10-26T11:06:20.988Z,76.51
2017-10-26T11:08:51.826Z,77.50
2017-10-26T11:11:22.847Z,77.81
2017-10-26T11:13:55.471Z,78.13
2017-10-26T11:16:26.799Z,77.87
2017-10-26T11:18:58.601Z,78.00
2017-10-26T11:21:29.828Z,78.29
2017-10-26T11:24:00.708Z,76.86
2017-10-26T11:26:32.728Z,77.25
2017-10-26T11:29:03.866Z,78.06
2017-10-26T11:31:36.262Z,76.94
2017-10-26T11:34:07.141Z,74.49
2017-10-26T11:36:39.409Z,73.45
2017-10-26T11:39:10.163Z,73.52
2017-10-26T11:41:40.780Z,72.88
2017-10-26T11:44:11.644Z,71.71
2017-10-26T11:46:42.946Z,70.30
2017-10-26T11:49:13.628Z,68.80
2017-10-26T11:51:44.833Z,70.04
2017-10-26T11:54:15.464Z,69.42
2017-10-26T11:56:46.406Z,68.88
2017-10-26T11:59:17.178Z,67.46
2017-10-26T12:01:49.200Z,68.95
2017-10-26T12:04:20.570Z,69.80
2017-10-26T12:06:51.156Z,69.90
2017-10-26T12:09:22.098Z,69.52
2017-10-26T12:11:53.101Z,69.30
2017-10-26T12:14:24.166Z,70.25
2017-10-26T12:16:59.096Z,69.14
2017-10-26T12:19:29.776Z,69.21
2017-10-26T12:22:02.230Z,68.33
2017-10-26T12:24:33.455Z,68.51
2017-10-26T12:27:04.896Z,68.57
2017-10-26T12:29:39.805Z,68.24
2017-10-26T12:32:12.879Z,67.94
2017-10-26T12:34:44.947Z,67.72
2017-10-26T12:37:18.975Z,66.91
2017-10-26T12:39:53.216Z,68.18
2017-10-26T12:42:24.049Z,68.03
2017-10-26T12:44:56.089Z,68.55
2017-10-26T12:47:27.939Z,68.33
2017-10-26T12:49:58.623Z,68.67
2017-10-26T12:52:30.492Z,68.50
2017-10-26T12:55:01.277Z,69.36
2017-10-26T12:57:33.459Z,69.07
2017-10-26T13:00:04.777Z,69.63
2017-10-26T13:02:36.444Z,69.53
2017-10-26T13:05:07.856Z,69.55
2017-10-26T13:07:39.245Z,69.86
2017-10-26T13:10:11.628Z,69.49
2017-10-26T13:12:42.745Z,68.71
2017-10-26T13:15:14.242Z,69.43
2017-10-26T13:17:44.966Z,70.22
2017-10-26T13:20:16.025Z,70.18
2017-10-26T13:22:47.498Z,70.14
2017-10-26T13:25:18.589Z,70.97
2017-10-26T13:27:49.683Z,71.51
2017-10-26T13:30:22.539Z,70.77
2017-10-26T13:32:53.722Z,71.54
2017-10-26T13:35:28.471Z,71.38
2017-10-26T13:38:00.993Z,71.75
2017-10-26T13:40:31.837Z,71.46
2017-10-26T13:43:02.914Z,70.89
2017-10-26T13:45:33.694Z,70.69
2017-10-26T13:48:04.198Z,70.19
2017-10-26T13:50:35.290Z,71.03
2017-10-26T13:53:09.018Z,70.37
2017-10-26T13:55:43.814Z,70.58
2017-10-26T13:58:14.954Z,69.95
2017-10-26T14:00:49.889Z,71.00
2017-10-26T14:03:23.314Z,70.66
2017-10-26T14:05:58.704Z,70.81
2017-10-26T14:08:30.589Z,71.29
2017-10-26T14:11:02.784Z,71.64
2017-10-26T14:13:33.748Z,71.81
2017-10-26T14:16:09.731Z,71.95
2017-10-26T14:18:44.845Z,71.67
2017-10-26T14:21:20.058Z,72.48
2017-10-26T14:23:53.432Z,71.80
2017-10-26T14:26:28.488Z,71.62
2017-10-26T14:29:02.753Z,72.87
2017-10-26T14:31:38.091Z,72.02
2017-10-26T14:34:13.994Z,71.87
2017-10-26T14:36:46.148Z,71.83
2017-10-26T14:39:19.701Z,72.23
2017-10-26T14:41:55.490Z,72.04
2017-10-26T14:44:28.814Z,71.79
2017-10-26T14:47:09.017Z,72.54
2017-10-26T14:49:43.417Z,71.20
2017-10-26T14:52:17.024Z,71.62
2017-10-26T14:54:50.604Z,71.54
2017-10-26T14:57:25.188Z,71.14
2017-10-26T14:59:59.651Z,71.26
2017-10-26T15:03:49.387Z,71.65
2017-10-26T15:06:27.536Z,71.60
2017-10-26T15:09:01.737Z,71.72
2017-10-26T15:11:36.455Z,72.37
2017-10-26T15:14:09.862Z,72.56
2017-10-26T15:16:46.413Z,72.70
2017-10-26T15:19:33.377Z,73.13
2017-10-26T15:22:06.901Z,73.16
2017-10-26T15:27:27.655Z,73.78
2017-10-26T15:30:11.874Z,74.01
2017-10-26T15:32:44.924Z,73.67
2017-10-26T15:35:18.456Z,73.96
2017-10-26T15:38:00.096Z,74.10
2017-10-26T15:43:22.963Z,74.05
2017-10-26T15:46:00.279Z,74.35
2017-10-26T15:48:33.975Z,74.55
2017-10-26T15:51:16.544Z,75.02
2017-10-26T15:53:57.152Z,74.88
2017-10-26T15:56:30.533Z,75.10
2017-10-26T15:59:06.959Z,75.20
2017-10-26T16:01:38.374Z,75.06
2017-10-26T16:04:12.040Z,75.15
2017-10-26T16:06:48.040Z,75.28
2017-10-26T16:09:22.419Z,75.43
2017-10-26T16:11:57.052Z,75.00
2017-10-26T16:14:34.165Z,75.00
2017-10-26T16:17:13.967Z,75.06
2017-10-26T16:19:52.282Z,75.00
2017-10-26T16:22:28.265Z,75.26
2017-10-26T16:25:03.856Z,75.29
2017-10-26T16:27:36.905Z,75.28
2017-10-26T16:30:14.401Z,75.23
2017-10-26T16:32:49.823Z,74.93
2017-10-26T16:35:26.744Z,75.53
2017-10-26T16:38:00.618Z,75.79
2017-10-26T16:40:37.121Z,76.15
2017-10-26T16:43:09.880Z,76.16
2017-10-26T16:45:49.924Z,76.59
2017-10-26T16:48:25.202Z,76.61
2017-10-26T16:51:00.460Z,76.85
2017-10-26T16:53:34.980Z,76.99
2017-10-26T16:56:11.170Z,77.30
2017-10-26T16:58:45.934Z,77.39
2017-10-26T17:04:08.388Z,77.56
2017-10-26T17:06:50.470Z,77.46
2017-10-26T17:09:24.538Z,77.48
2017-10-26T17:12:00.690Z,77.81
2017-10-26T17:14:36.436Z,77.81
2017-10-26T17:17:32.842Z,77.92
2017-10-26T17:20:18.296Z,77.48
2017-10-26T17:22:49.392Z,77.59
2017-10-26T17:25:24.471Z,77.57
2017-10-26T17:27:56.787Z,77.67
2017-10-26T17:30:29.193Z,77.72
2017-10-26T17:33:02.786Z,78.19
2017-10-26T17:35:39.063Z,78.05
2017-10-26T17:38:13.082Z,77.91
2017-10-26T17:40:50.391Z,78.20
2017-10-26T17:43:22.795Z,78.20
2017-10-26T17:46:04.828Z,78.15
2017-10-26T17:48:43.883Z,78.33
2017-10-26T17:51:19.357Z,78.73
2017-10-26T17:53:53.928Z,78.65
2017-10-26T17:56:34.333Z,79.00
2017-10-26T17:59:12.393Z,78.87
2017-10-26T18:01:55.833Z,78.51
2017-10-26T18:04:29.009Z,78.66
2017-10-26T18:07:06.163Z,78.99
2017-10-26T18:12:23.283Z,78.94
2017-10-26T18:14:56.174Z,79.23
2017-10-26T18:17:35.736Z,79.57
2017-10-26T18:20:26.878Z,79.58
2017-10-26T18:23:01.980Z,79.66
2017-10-26T18:25:42.239Z,79.81
2017-10-26T18:28:15.242Z,79.58
2017-10-26T18:30:47.837Z,79.87
2017-10-26T18:33:27.652Z,79.79
2017-10-26T18:36:01.709Z,79.89
2017-10-26T18:38:35.882Z,80.02
2017-10-26T18:41:12.329Z,80.00
2017-10-26T18:43:47.308Z,80.46
2017-10-26T18:46:20.806Z,80.58
2017-10-26T18:48:52.821Z,80.55
2017-10-26T18:51:26.817Z,80.67
2017-10-26T18:54:05.239Z,80.66
2017-10-26T18:56:37.409Z,80.79
2017-10-26T18:59:11.812Z,80.50
2017-10-26T19:01:46.215Z,80.74
2017-10-26T19:04:20.892Z,80.53
2017-10-26T19:06:52.741Z,80.35
2017-10-26T19:09:35.496Z,80.57
2017-10-26T19:12:14.642Z,80.59
2017-10-26T19:14:46.868Z,80.71
2017-10-26T19:17:45.111Z,80.99
2017-10-26T19:20:34.868Z,80.95
2017-10-26T19:23:15.500Z,80.94
2017-10-26T19:25:52.587Z,80.87
2017-10-26T19:28:26.958Z,80.95
2017-10-26T19:31:05.148Z,80.95
2017-10-26T19:33:44.917Z,81.12
2017-10-26T19:36:16.506Z,81.05
2017-10-26T19:38:52.275Z,81.04
2017-10-26T19:41:26.544Z,81.18
2017-10-26T19:44:08.419Z,81.54
2017-10-26T19:46:42.846Z,81.68
2017-10-26T19:49:17.302Z,81.67
2017-10-26T19:51:51.740Z,81.39
2017-10-26T19:54:28.568Z,81.21
2017-10-26T19:57:05.577Z,81.48
2017-10-26T19:59:41.004Z,81.42
2017-10-26T20:02:21.767Z,81.52
2017-10-26T20:05:03.092Z,81.50
2017-10-26T20:07:44.193Z,81.58
2017-10-26T20:10:19.844Z,81.72
2017-10-26T20:15:35.596Z,81.95
2017-10-26T20:18:22.419Z,81.92
2017-10-26T20:21:04.479Z,82.19
2017-10-26T20:23:38.834Z,82.36
2017-10-26T20:26:24.508Z,82.30
2017-10-26T20:29:00.857Z,82.24
2017-10-26T20:31:37.890Z,82.54
2017-10-26T20:34:17.708Z,82.38
2017-10-26T20:36:56.224Z,83.12
2017-10-26T20:39:35.386Z,82.90
2017-10-26T20:42:11.021Z,82.82
2017-10-26T20:44:48.833Z,82.91
2017-10-26T20:47:27.444Z,82.59
2017-10-26T20:50:09.557Z,82.66
2017-10-26T20:54:51.568Z,82.81
2017-10-26T20:59:36.891Z,82.87
2017-10-26T21:04:18.832Z,82.75
2017-10-26T21:06:54.691Z,82.85
2017-10-26T21:09:35.473Z,82.67
2017-10-26T21:14:15.040Z,82.79
2017-10-26T21:16:51.472Z,83.39
2017-10-26T21:19:24.841Z,83.09
2017-10-26T21:21:59.494Z,83.28
2017-10-26T21:24:32.685Z,83.25
2017-10-26T21:27:05.260Z,83.27
2017-10-26T21:29:39.487Z,83.42
2017-10-26T21:32:14.221Z,83.18
2017-10-26T21:34:46.041Z,83.19
2017-10-26T21:37:18.772Z,83.60
2017-10-26T21:39:52.446Z,83.22
2017-10-26T21:42:25.920Z,83.79
2017-10-26T21:45:02.161Z,83.79
2017-10-26T21:47:36.748Z,83.78
2017-10-26T21:50:15.151Z,84.20
2017-10-26T21:52:51.213Z,84.28
2017-10-26T21:55:24.039Z,84.50
2017-10-26T21:57:57.343Z,84.42
2017-10-26T22:00:34.529Z,84.63
2017-10-26T22:03:16.191Z,84.52
2017-10-26T22:05:57.478Z,84.86
2017-10-26T22:08:34.040Z,84.89
2017-10-26T22:19:43.975Z,85.08
2017-10-26T22:23:16.569Z,85.04
2017-10-26T23:43:37.233Z,100.00
2017-10-26T23:46:09.601Z,100.00
2017-10-26T23:48:41.056Z,100.00
2017-10-26T23:51:12.777Z,100.00
2017-10-26T23:53:44.440Z,100.00
2017-10-26T23:56:15.846Z,100.00
2017-10-26T23:58:47.165Z,100.00
